sensor_id;sensor_type;location;lat;lon;timestamp;P1;durP1;ratioP1;P2;durP2;ratioP2
7334;SDS011;3708;42.632;23.378;2022-07-29T00:01:54;10.57;;;7.13;;
7334;SDS011;3708;42.632;23.378;2022-07-29T00:04:21;9.07;;;7.10;;
7334;SDS011;3708;42.632;23.378;2022-07-29T00:06:48;14.30;;;6.50;;
7334;SDS011;3708;42.632;23.378;2022-07-29T00:09:15;8.43;;;7.33;;
7334;SDS011;3708;42.632;23.378;2022-07-29T00:11:42;7.33;;;6.60;;
7334;SDS011;3708;42.632;23.378;2022-07-29T00:14:11;7.40;;;6.70;;
7334;SDS011;3708;42.632;23.378;2022-07-29T00:16:38;8.13;;;7.33;;
7334;SDS011;3708;42.632;23.378;2022-07-29T00:19:05;8.07;;;6.97;;
7334;SDS011;3708;42.632;23.378;2022-07-29T00:21:32;7.90;;;7.10;;
7334;SDS011;3708;42.632;23.378;2022-07-29T00:23:59;9.70;;;7.50;;
7334;SDS011;3708;42.632;23.378;2022-07-29T00:26:26;8.33;;;7.40;;
7334;SDS011;3708;42.632;23.378;2022-07-29T00:28:56;8.30;;;7.37;;
7334;SDS011;3708;42.632;23.378;2022-07-29T00:31:25;18.33;;;7.87;;
7334;SDS011;3708;42.632;23.378;2022-07-29T00:33:53;8.07;;;6.93;;
7334;SDS011;3708;42.632;23.378;2022-07-29T00:36:21;8.87;;;7.50;;
7334;SDS011;3708;42.632;23.378;2022-07-29T00:38:47;7.97;;;6.20;;
7334;SDS011;3708;42.632;23.378;2022-07-29T00:41:14;8.10;;;7.30;;
7334;SDS011;3708;42.632;23.378;2022-07-29T00:43:42;8.90;;;7.27;;
7334;SDS011;3708;42.632;23.378;2022-07-29T00:46:09;9.10;;;7.83;;
7334;SDS011;3708;42.632;23.378;2022-07-29T00:48:39;9.50;;;8.50;;
7334;SDS011;3708;42.632;23.378;2022-07-29T00:51:06;12.67;;;9.73;;
7334;SDS011;3708;42.632;23.378;2022-07-29T00:53:35;10.43;;;8.47;;
7334;SDS011;3708;42.632;23.378;2022-07-29T00:56:02;9.17;;;8.17;;
7334;SDS011;3708;42.632;23.378;2022-07-29T00:58:30;9.77;;;7.50;;
7334;SDS011;3708;42.632;23.378;2022-07-29T01:00:58;11.73;;;8.90;;
7334;SDS011;3708;42.632;23.378;2022-07-29T01:03:25;8.13;;;7.23;;
7334;SDS011;3708;42.632;23.378;2022-07-29T01:05:53;9.03;;;8.13;;
7334;SDS011;3708;42.632;23.378;2022-07-29T01:08:20;7.43;;;6.73;;
7334;SDS011;3708;42.632;23.378;2022-07-29T01:10:49;8.70;;;7.87;;
7334;SDS011;3708;42.632;23.378;2022-07-29T01:13:18;7.57;;;6.77;;
7334;SDS011;3708;42.632;23.378;2022-07-29T01:15:47;9.13;;;7.13;;
7334;SDS011;3708;42.632;23.378;2022-07-29T01:18:22;9.83;;;7.80;;
7334;SDS011;3708;42.632;23.378;2022-07-29T01:20:59;10.13;;;7.43;;
7334;SDS011;3708;42.632;23.378;2022-07-29T01:23:52;7.90;;;7.10;;
7334;SDS011;3708;42.632;23.378;2022-07-29T01:26:33;10.57;;;7.00;;
7334;SDS011;3708;42.632;23.378;2022-07-29T01:29:10;8.13;;;6.73;;
7334;SDS011;3708;42.632;23.378;2022-07-29T01:31:44;10.30;;;6.53;;
7334;SDS011;3708;42.632;23.378;2022-07-29T01:34:17;8.43;;;7.53;;
7334;SDS011;3708;42.632;23.378;2022-07-29T01:36:48;8.83;;;7.63;;
7334;SDS011;3708;42.632;23.378;2022-07-29T01:39:22;8.23;;;7.43;;
7334;SDS011;3708;42.632;23.378;2022-07-29T01:41:56;9.60;;;7.60;;
7334;SDS011;3708;42.632;23.378;2022-07-29T01:44:31;8.50;;;7.03;;
7334;SDS011;3708;42.632;23.378;2022-07-29T01:47:04;9.43;;;7.30;;
7334;SDS011;3708;42.632;23.378;2022-07-29T01:49:36;9.83;;;6.57;;
7334;SDS011;3708;42.632;23.378;2022-07-29T01:52:11;8.37;;;7.27;;
7334;SDS011;3708;42.632;23.378;2022-07-29T01:54:46;7.63;;;6.90;;
7334;SDS011;3708;42.632;23.378;2022-07-29T01:57:18;8.57;;;7.00;;
7334;SDS011;3708;42.632;23.378;2022-07-29T01:59:49;9.53;;;6.93;;
7334;SDS011;3708;42.632;23.378;2022-07-29T02:02:17;10.20;;;7.27;;
7334;SDS011;3708;42.632;23.378;2022-07-29T02:04:45;8.30;;;6.67;;
7334;SDS011;3708;42.632;23.378;2022-07-29T02:07:15;8.30;;;7.50;;
7334;SDS011;3708;42.632;23.378;2022-07-29T02:09:45;12.17;;;7.17;;
7334;SDS011;3708;42.632;23.378;2022-07-29T02:12:17;7.50;;;6.80;;
7334;SDS011;3708;42.632;23.378;2022-07-29T02:14:46;8.80;;;7.10;;
7334;SDS011;3708;42.632;23.378;2022-07-29T02:17:20;8.13;;;6.73;;
7334;SDS011;3708;42.632;23.378;2022-07-29T02:19:49;10.70;;;6.90;;
7334;SDS011;3708;42.632;23.378;2022-07-29T02:22:18;8.40;;;7.50;;
7334;SDS011;3708;42.632;23.378;2022-07-29T02:24:47;9.47;;;6.90;;
7334;SDS011;3708;42.632;23.378;2022-07-29T02:27:17;8.47;;;7.53;;
7334;SDS011;3708;42.632;23.378;2022-07-29T02:29:46;7.70;;;6.90;;
7334;SDS011;3708;42.632;23.378;2022-07-29T02:32:16;7.33;;;6.63;;
7334;SDS011;3708;42.632;23.378;2022-07-29T02:34:44;7.80;;;7.00;;
7334;SDS011;3708;42.632;23.378;2022-07-29T02:37:13;11.23;;;7.10;;
7334;SDS011;3708;42.632;23.378;2022-07-29T02:39:43;9.13;;;6.33;;
7334;SDS011;3708;42.632;23.378;2022-07-29T02:42:12;10.37;;;6.80;;
7334;SDS011;3708;42.632;23.378;2022-07-29T02:44:42;8.47;;;7.20;;
7334;SDS011;3708;42.632;23.378;2022-07-29T02:47:12;9.53;;;6.77;;
7334;SDS011;3708;42.632;23.378;2022-07-29T02:49:46;7.40;;;6.60;;
7334;SDS011;3708;42.632;23.378;2022-07-29T02:52:19;8.27;;;6.23;;
7334;SDS011;3708;42.632;23.378;2022-07-29T02:54:51;7.80;;;6.57;;
7334;SDS011;3708;42.632;23.378;2022-07-29T02:57:22;16.80;;;7.40;;
7334;SDS011;3708;42.632;23.378;2022-07-29T02:59:58;8.90;;;6.30;;
7334;SDS011;3708;42.632;23.378;2022-07-29T03:02:34;11.90;;;6.90;;
7334;SDS011;3708;42.632;23.378;2022-07-29T03:05:04;7.17;;;5.50;;
7334;SDS011;3708;42.632;23.378;2022-07-29T03:07:34;9.63;;;6.47;;
7334;SDS011;3708;42.632;23.378;2022-07-29T03:10:02;6.93;;;6.23;;
7334;SDS011;3708;42.632;23.378;2022-07-29T03:12:30;6.97;;;6.10;;
7334;SDS011;3708;42.632;23.378;2022-07-29T03:14:58;10.40;;;6.93;;
7334;SDS011;3708;42.632;23.378;2022-07-29T03:17:28;7.73;;;6.97;;
7334;SDS011;3708;42.632;23.378;2022-07-29T03:19:58;9.43;;;6.23;;
7334;SDS011;3708;42.632;23.378;2022-07-29T03:22:26;11.67;;;6.83;;
7334;SDS011;3708;42.632;23.378;2022-07-29T03:24:53;11.00;;;7.27;;
7334;SDS011;3708;42.632;23.378;2022-07-29T03:27:20;7.43;;;6.73;;
7334;SDS011;3708;42.632;23.378;2022-07-29T03:29:47;7.10;;;6.20;;
7334;SDS011;3708;42.632;23.378;2022-07-29T03:32:14;8.70;;;6.43;;
7334;SDS011;3708;42.632;23.378;2022-07-29T03:34:42;11.20;;;6.80;;
7334;SDS011;3708;42.632;23.378;2022-07-29T03:37:12;8.17;;;7.17;;
7334;SDS011;3708;42.632;23.378;2022-07-29T03:39:40;7.80;;;6.50;;
7334;SDS011;3708;42.632;23.378;2022-07-29T03:42:10;12.87;;;7.87;;
7334;SDS011;3708;42.632;23.378;2022-07-29T03:44:41;11.80;;;7.67;;
7334;SDS011;3708;42.632;23.378;2022-07-29T03:47:13;8.90;;;7.50;;
7334;SDS011;3708;42.632;23.378;2022-07-29T03:49:42;7.50;;;6.27;;
7334;SDS011;3708;42.632;23.378;2022-07-29T03:52:15;9.50;;;6.07;;
7334;SDS011;3708;42.632;23.378;2022-07-29T03:54:43;9.40;;;6.30;;
7334;SDS011;3708;42.632;23.378;2022-07-29T03:57:10;9.13;;;6.43;;
7334;SDS011;3708;42.632;23.378;2022-07-29T03:59:38;13.87;;;6.70;;
7334;SDS011;3708;42.632;23.378;2022-07-29T04:02:05;7.47;;;6.63;;
7334;SDS011;3708;42.632;23.378;2022-07-29T04:04:36;7.90;;;6.93;;
7334;SDS011;3708;42.632;23.378;2022-07-29T04:07:03;8.43;;;7.00;;
7334;SDS011;3708;42.632;23.378;2022-07-29T04:09:31;9.67;;;6.53;;
7334;SDS011;3708;42.632;23.378;2022-07-29T04:11:58;10.57;;;7.00;;
7334;SDS011;3708;42.632;23.378;2022-07-29T04:14:25;8.33;;;6.80;;
7334;SDS011;3708;42.632;23.378;2022-07-29T04:16:52;7.30;;;6.60;;
7334;SDS011;3708;42.632;23.378;2022-07-29T04:19:19;8.33;;;7.03;;
7334;SDS011;3708;42.632;23.378;2022-07-29T04:21:46;8.70;;;7.10;;
7334;SDS011;3708;42.632;23.378;2022-07-29T04:24:13;10.83;;;6.93;;
7334;SDS011;3708;42.632;23.378;2022-07-29T04:26:41;6.93;;;6.00;;
7334;SDS011;3708;42.632;23.378;2022-07-29T04:29:08;8.20;;;6.17;;
7334;SDS011;3708;42.632;23.378;2022-07-29T04:31:37;6.73;;;5.93;;
7334;SDS011;3708;42.632;23.378;2022-07-29T04:34:04;7.27;;;6.23;;
7334;SDS011;3708;42.632;23.378;2022-07-29T04:36:31;8.80;;;6.80;;
7334;SDS011;3708;42.632;23.378;2022-07-29T04:38:58;6.80;;;6.10;;
7334;SDS011;3708;42.632;23.378;2022-07-29T04:41:26;7.90;;;5.90;;
7334;SDS011;3708;42.632;23.378;2022-07-29T04:43:54;5.93;;;5.33;;
7334;SDS011;3708;42.632;23.378;2022-07-29T04:46:21;9.20;;;6.03;;
7334;SDS011;3708;42.632;23.378;2022-07-29T04:48:48;17.70;;;6.33;;
7334;SDS011;3708;42.632;23.378;2022-07-29T04:51:15;6.77;;;5.37;;
7334;SDS011;3708;42.632;23.378;2022-07-29T04:53:42;6.90;;;5.77;;
7334;SDS011;3708;42.632;23.378;2022-07-29T04:56:09;10.40;;;5.93;;
7334;SDS011;3708;42.632;23.378;2022-07-29T04:58:37;7.67;;;5.43;;
7334;SDS011;3708;42.632;23.378;2022-07-29T05:01:06;6.10;;;4.93;;
7334;SDS011;3708;42.632;23.378;2022-07-29T05:03:33;6.53;;;5.47;;
7334;SDS011;3708;42.632;23.378;2022-07-29T05:06:00;7.83;;;5.47;;
7334;SDS011;3708;42.632;23.378;2022-07-29T05:08:27;10.17;;;6.00;;
7334;SDS011;3708;42.632;23.378;2022-07-29T05:10:54;8.52;;;5.32;;
7334;SDS011;3708;42.632;23.378;2022-07-29T05:13:29;8.82;;;5.68;;
7334;SDS011;3708;42.632;23.378;2022-07-29T05:15:56;6.15;;;5.40;;
7334;SDS011;3708;42.632;23.378;2022-07-29T05:18:26;8.23;;;5.88;;
7334;SDS011;3708;42.632;23.378;2022-07-29T05:20:54;6.15;;;5.45;;
7334;SDS011;3708;42.632;23.378;2022-07-29T05:23:23;6.00;;;5.25;;
7334;SDS011;3708;42.632;23.378;2022-07-29T05:25:50;9.65;;;6.03;;
7334;SDS011;3708;42.632;23.378;2022-07-29T05:28:17;7.55;;;5.97;;
7334;SDS011;3708;42.632;23.378;2022-07-29T05:30:44;8.65;;;5.88;;
7334;SDS011;3708;42.632;23.378;2022-07-29T05:33:11;8.32;;;6.10;;
7334;SDS011;3708;42.632;23.378;2022-07-29T05:35:40;6.82;;;5.65;;
7334;SDS011;3708;42.632;23.378;2022-07-29T05:38:07;6.38;;;5.70;;
7334;SDS011;3708;42.632;23.378;2022-07-29T05:40:34;6.13;;;5.53;;
7334;SDS011;3708;42.632;23.378;2022-07-29T05:43:04;8.18;;;5.78;;
7334;SDS011;3708;42.632;23.378;2022-07-29T05:45:31;8.13;;;5.47;;
7334;SDS011;3708;42.632;23.378;2022-07-29T05:47:58;5.80;;;5.15;;
7334;SDS011;3708;42.632;23.378;2022-07-29T05:50:25;13.57;;;7.18;;
7334;SDS011;3708;42.632;23.378;2022-07-29T05:52:53;9.02;;;5.50;;
7334;SDS011;3708;42.632;23.378;2022-07-29T05:55:20;6.65;;;5.93;;
7334;SDS011;3708;42.632;23.378;2022-07-29T05:57:47;9.68;;;6.43;;
7334;SDS011;3708;42.632;23.378;2022-07-29T06:00:14;7.80;;;6.18;;
7334;SDS011;3708;42.632;23.378;2022-07-29T06:02:42;9.48;;;5.68;;
7334;SDS011;3708;42.632;23.378;2022-07-29T06:05:09;9.27;;;6.38;;
7334;SDS011;3708;42.632;23.378;2022-07-29T06:07:36;7.60;;;6.45;;
7334;SDS011;3708;42.632;23.378;2022-07-29T06:10:05;9.55;;;6.30;;
7334;SDS011;3708;42.632;23.378;2022-07-29T06:12:35;9.27;;;6.50;;
7334;SDS011;3708;42.632;23.378;2022-07-29T06:15:03;9.73;;;6.43;;
7334;SDS011;3708;42.632;23.378;2022-07-29T06:17:32;7.22;;;6.18;;
7334;SDS011;3708;42.632;23.378;2022-07-29T06:20:00;15.80;;;8.07;;
7334;SDS011;3708;42.632;23.378;2022-07-29T06:22:31;25.75;;;8.95;;
7334;SDS011;3708;42.632;23.378;2022-07-29T06:25:00;29.70;;;9.77;;
7334;SDS011;3708;42.632;23.378;2022-07-29T06:27:35;10.55;;;6.60;;
7334;SDS011;3708;42.632;23.378;2022-07-29T06:30:02;12.02;;;6.90;;
7334;SDS011;3708;42.632;23.378;2022-07-29T06:32:32;11.38;;;6.30;;
7334;SDS011;3708;42.632;23.378;2022-07-29T06:35:04;10.68;;;6.78;;
7334;SDS011;3708;42.632;23.378;2022-07-29T06:37:32;20.10;;;6.80;;
7334;SDS011;3708;42.632;23.378;2022-07-29T06:40:00;12.55;;;7.00;;
7334;SDS011;3708;42.632;23.378;2022-07-29T06:42:46;10.68;;;6.57;;
7334;SDS011;3708;42.632;23.378;2022-07-29T06:45:13;12.50;;;6.05;;
7334;SDS011;3708;42.632;23.378;2022-07-29T06:47:41;7.20;;;6.35;;
7334;SDS011;3708;42.632;23.378;2022-07-29T06:50:08;11.10;;;6.65;;
7334;SDS011;3708;42.632;23.378;2022-07-29T06:52:37;7.93;;;6.25;;
7334;SDS011;3708;42.632;23.378;2022-07-29T06:55:06;10.73;;;7.18;;
7334;SDS011;3708;42.632;23.378;2022-07-29T06:57:34;6.75;;;6.05;;
7334;SDS011;3708;42.632;23.378;2022-07-29T07:00:03;7.35;;;5.90;;
7334;SDS011;3708;42.632;23.378;2022-07-29T07:02:31;8.57;;;5.90;;
7334;SDS011;3708;42.632;23.378;2022-07-29T07:04:58;9.35;;;5.57;;
7334;SDS011;3708;42.632;23.378;2022-07-29T07:07:25;9.52;;;5.22;;
7334;SDS011;3708;42.632;23.378;2022-07-29T07:09:52;7.38;;;5.20;;
7334;SDS011;3708;42.632;23.378;2022-07-29T07:12:19;7.13;;;5.43;;
7334;SDS011;3708;42.632;23.378;2022-07-29T07:14:46;7.07;;;4.93;;
7334;SDS011;3708;42.632;23.378;2022-07-29T07:17:14;5.70;;;5.10;;
7334;SDS011;3708;42.632;23.378;2022-07-29T07:19:41;6.43;;;5.00;;
7334;SDS011;3708;42.632;23.378;2022-07-29T07:22:08;4.93;;;4.43;;
7334;SDS011;3708;42.632;23.378;2022-07-29T07:24:35;10.05;;;5.00;;
7334;SDS011;3708;42.632;23.378;2022-07-29T07:27:02;9.90;;;4.75;;
7334;SDS011;3708;42.632;23.378;2022-07-29T07:29:29;11.55;;;4.75;;
7334;SDS011;3708;42.632;23.378;2022-07-29T07:31:57;5.53;;;4.32;;
7334;SDS011;3708;42.632;23.378;2022-07-29T07:34:26;5.72;;;4.35;;
7334;SDS011;3708;42.632;23.378;2022-07-29T07:36:53;7.45;;;4.25;;
7334;SDS011;3708;42.632;23.378;2022-07-29T07:39:20;7.22;;;4.60;;
7334;SDS011;3708;42.632;23.378;2022-07-29T07:41:47;7.43;;;3.83;;
7334;SDS011;3708;42.632;23.378;2022-07-29T07:44:17;6.20;;;3.53;;
7334;SDS011;3708;42.632;23.378;2022-07-29T07:46:44;8.93;;;3.70;;
7334;SDS011;3708;42.632;23.378;2022-07-29T07:49:11;6.60;;;3.78;;
7334;SDS011;3708;42.632;23.378;2022-07-29T07:51:39;4.30;;;3.90;;
7334;SDS011;3708;42.632;23.378;2022-07-29T07:54:07;10.45;;;4.45;;
7334;SDS011;3708;42.632;23.378;2022-07-29T07:56:36;4.40;;;4.00;;
7334;SDS011;3708;42.632;23.378;2022-07-29T07:59:03;5.82;;;4.10;;
7334;SDS011;3708;42.632;23.378;2022-07-29T08:01:30;7.97;;;3.72;;
7334;SDS011;3708;42.632;23.378;2022-07-29T08:03:57;4.18;;;3.80;;
7334;SDS011;3708;42.632;23.378;2022-07-29T08:06:24;6.60;;;3.38;;
7334;SDS011;3708;42.632;23.378;2022-07-29T08:08:52;7.75;;;3.53;;
7334;SDS011;3708;42.632;23.378;2022-07-29T08:11:19;6.80;;;3.88;;
7334;SDS011;3708;42.632;23.378;2022-07-29T08:13:49;4.97;;;3.70;;
7334;SDS011;3708;42.632;23.378;2022-07-29T08:16:17;3.72;;;3.40;;
7334;SDS011;3708;42.632;23.378;2022-07-29T08:18:44;4.15;;;3.70;;
7334;SDS011;3708;42.632;23.378;2022-07-29T08:21:12;4.53;;;3.03;;
7334;SDS011;3708;42.632;23.378;2022-07-29T08:23:40;5.38;;;3.67;;
7334;SDS011;3708;42.632;23.378;2022-07-29T08:26:12;8.60;;;4.00;;
7334;SDS011;3708;42.632;23.378;2022-07-29T08:28:40;4.78;;;3.60;;
7334;SDS011;3708;42.632;23.378;2022-07-29T08:31:10;3.20;;;2.90;;
7334;SDS011;3708;42.632;23.378;2022-07-29T08:33:38;7.47;;;3.28;;
7334;SDS011;3708;42.632;23.378;2022-07-29T08:36:05;4.25;;;2.92;;
7334;SDS011;3708;42.632;23.378;2022-07-29T08:38:33;6.72;;;3.50;;
7334;SDS011;3708;42.632;23.378;2022-07-29T08:41:01;6.28;;;3.30;;
7334;SDS011;3708;42.632;23.378;2022-07-29T08:43:33;3.78;;;3.38;;
7334;SDS011;3708;42.632;23.378;2022-07-29T08:46:02;4.72;;;3.33;;
7334;SDS011;3708;42.632;23.378;2022-07-29T08:48:29;4.60;;;2.83;;
7334;SDS011;3708;42.632;23.378;2022-07-29T08:51:00;4.60;;;3.30;;
7334;SDS011;3708;42.632;23.378;2022-07-29T08:53:28;3.15;;;2.85;;
7334;SDS011;3708;42.632;23.378;2022-07-29T08:55:55;5.47;;;3.08;;
7334;SDS011;3708;42.632;23.378;2022-07-29T08:58:25;3.60;;;3.10;;
7334;SDS011;3708;42.632;23.378;2022-07-29T09:01:01;4.25;;;3.28;;
7334;SDS011;3708;42.632;23.378;2022-07-29T09:03:34;3.40;;;2.75;;
7334;SDS011;3708;42.632;23.378;2022-07-29T09:06:04;5.30;;;4.03;;
7334;SDS011;3708;42.632;23.378;2022-07-29T09:08:31;4.35;;;3.90;;
7334;SDS011;3708;42.632;23.378;2022-07-29T09:11:00;5.70;;;4.35;;
7334;SDS011;3708;42.632;23.378;2022-07-29T09:13:28;4.50;;;3.67;;
7334;SDS011;3708;42.632;23.378;2022-07-29T09:15:58;4.60;;;3.30;;
7334;SDS011;3708;42.632;23.378;2022-07-29T09:18:36;6.75;;;4.03;;
7334;SDS011;3708;42.632;23.378;2022-07-29T09:21:10;3.25;;;2.95;;
7334;SDS011;3708;42.632;23.378;2022-07-29T09:23:59;3.80;;;3.40;;
7334;SDS011;3708;42.632;23.378;2022-07-29T09:26:29;4.70;;;3.92;;
7334;SDS011;3708;42.632;23.378;2022-07-29T09:28:57;3.80;;;3.28;;
7334;SDS011;3708;42.632;23.378;2022-07-29T09:31:34;6.88;;;3.58;;
7334;SDS011;3708;42.632;23.378;2022-07-29T09:34:11;5.22;;;4.28;;
7334;SDS011;3708;42.632;23.378;2022-07-29T09:36:44;4.65;;;4.05;;
7334;SDS011;3708;42.632;23.378;2022-07-29T09:39:47;5.40;;;3.58;;
7334;SDS011;3708;42.632;23.378;2022-07-29T09:42:34;6.25;;;3.88;;
7334;SDS011;3708;42.632;23.378;2022-07-29T09:48:12;4.88;;;4.10;;
7334;SDS011;3708;42.632;23.378;2022-07-29T09:50:44;7.07;;;3.97;;
7334;SDS011;3708;42.632;23.378;2022-07-29T09:53:30;8.10;;;4.30;;
7334;SDS011;3708;42.632;23.378;2022-07-29T09:56:00;7.20;;;4.10;;
7334;SDS011;3708;42.632;23.378;2022-07-29T09:58:27;4.80;;;4.40;;
7334;SDS011;3708;42.632;23.378;2022-07-29T10:00:55;6.95;;;4.82;;
7334;SDS011;3708;42.632;23.378;2022-07-29T10:03:24;4.38;;;3.97;;
7334;SDS011;3708;42.632;23.378;2022-07-29T10:06:05;5.50;;;4.95;;
7334;SDS011;3708;42.632;23.378;2022-07-29T10:08:33;4.80;;;4.22;;
7334;SDS011;3708;42.632;23.378;2022-07-29T10:13:47;4.20;;;3.80;;
7334;SDS011;3708;42.632;23.378;2022-07-29T10:16:17;7.60;;;3.97;;
7334;SDS011;3708;42.632;23.378;2022-07-29T10:18:46;6.07;;;4.05;;
7334;SDS011;3708;42.632;23.378;2022-07-29T10:21:13;4.90;;;4.38;;
7334;SDS011;3708;42.632;23.378;2022-07-29T10:23:42;8.07;;;4.43;;
7334;SDS011;3708;42.632;23.378;2022-07-29T10:26:31;8.82;;;4.78;;
7334;SDS011;3708;42.632;23.378;2022-07-29T10:29:00;4.78;;;4.32;;
7334;SDS011;3708;42.632;23.378;2022-07-29T10:31:33;6.22;;;3.50;;
7334;SDS011;3708;42.632;23.378;2022-07-29T10:34:19;6.57;;;3.40;;
7334;SDS011;3708;42.632;23.378;2022-07-29T10:37:03;5.05;;;3.97;;
7334;SDS011;3708;42.632;23.378;2022-07-29T10:39:42;3.50;;;3.10;;
7334;SDS011;3708;42.632;23.378;2022-07-29T10:42:19;5.38;;;4.10;;
7334;SDS011;3708;42.632;23.378;2022-07-29T10:44:49;5.07;;;3.65;;
7334;SDS011;3708;42.632;23.378;2022-07-29T10:47:21;4.18;;;3.40;;
7334;SDS011;3708;42.632;23.378;2022-07-29T10:49:57;6.00;;;3.65;;
7334;SDS011;3708;42.632;23.378;2022-07-29T10:52:36;11.32;;;3.90;;
7334;SDS011;3708;42.632;23.378;2022-07-29T10:55:32;4.57;;;3.50;;
7334;SDS011;3708;42.632;23.378;2022-07-29T10:58:10;4.20;;;3.60;;
7334;SDS011;3708;42.632;23.378;2022-07-29T11:00:40;4.53;;;3.42;;
7334;SDS011;3708;42.632;23.378;2022-07-29T11:03:07;3.55;;;3.25;;
7334;SDS011;3708;42.632;23.378;2022-07-29T11:08:23;3.95;;;3.63;;
7334;SDS011;3708;42.632;23.378;2022-07-29T11:14:01;4.32;;;3.78;;
7334;SDS011;3708;42.632;23.378;2022-07-29T11:19:30;3.35;;;3.05;;
7334;SDS011;3708;42.632;23.378;2022-07-29T11:21:59;4.57;;;3.67;;
7334;SDS011;3708;42.632;23.378;2022-07-29T11:24:27;4.93;;;3.80;;
7334;SDS011;3708;42.632;23.378;2022-07-29T11:27:06;4.10;;;3.67;;
7334;SDS011;3708;42.632;23.378;2022-07-29T11:29:38;4.40;;;4.00;;
7334;SDS011;3708;42.632;23.378;2022-07-29T11:32:10;4.18;;;3.20;;
7334;SDS011;3708;42.632;23.378;2022-07-29T11:34:39;3.92;;;3.53;;
7334;SDS011;3708;42.632;23.378;2022-07-29T11:40:12;4.68;;;3.25;;
7334;SDS011;3708;42.632;23.378;2022-07-29T11:42:44;4.22;;;3.83;;
7334;SDS011;3708;42.632;23.378;2022-07-29T11:45:13;3.40;;;3.10;;
7334;SDS011;3708;42.632;23.378;2022-07-29T11:47:46;3.53;;;3.22;;
7334;SDS011;3708;42.632;23.378;2022-07-29T11:50:16;3.67;;;3.38;;
7334;SDS011;3708;42.632;23.378;2022-07-29T11:52:46;4.25;;;3.90;;
7334;SDS011;3708;42.632;23.378;2022-07-29T11:55:15;5.07;;;3.58;;
7334;SDS011;3708;42.632;23.378;2022-07-29T11:57:46;7.18;;;4.00;;
7334;SDS011;3708;42.632;23.378;2022-07-29T12:00:24;3.90;;;3.35;;
7334;SDS011;3708;42.632;23.378;2022-07-29T12:02:57;4.30;;;3.90;;
7334;SDS011;3708;42.632;23.378;2022-07-29T12:05:36;3.78;;;3.35;;
7334;SDS011;3708;42.632;23.378;2022-07-29T12:08:09;4.57;;;3.78;;
7334;SDS011;3708;42.632;23.378;2022-07-29T12:10:37;6.07;;;3.70;;
7334;SDS011;3708;42.632;23.378;2022-07-29T12:13:04;5.25;;;3.88;;
7334;SDS011;3708;42.632;23.378;2022-07-29T12:15:32;6.82;;;3.70;;
7334;SDS011;3708;42.632;23.378;2022-07-29T12:18:05;5.25;;;4.07;;
7334;SDS011;3708;42.632;23.378;2022-07-29T12:20:36;4.32;;;3.65;;
7334;SDS011;3708;42.632;23.378;2022-07-29T12:23:04;4.30;;;3.85;;
7334;SDS011;3708;42.632;23.378;2022-07-29T12:25:34;6.18;;;3.33;;
7334;SDS011;3708;42.632;23.378;2022-07-29T12:28:03;5.00;;;3.92;;
7334;SDS011;3708;42.632;23.378;2022-07-29T12:30:38;5.18;;;4.57;;
7334;SDS011;3708;42.632;23.378;2022-07-29T12:33:20;3.92;;;3.60;;
7334;SDS011;3708;42.632;23.378;2022-07-29T12:35:49;8.85;;;4.15;;
7334;SDS011;3708;42.632;23.378;2022-07-29T12:38:17;4.38;;;4.07;;
7334;SDS011;3708;42.632;23.378;2022-07-29T12:40:47;7.45;;;4.03;;
7334;SDS011;3708;42.632;23.378;2022-07-29T12:43:16;4.78;;;4.38;;
7334;SDS011;3708;42.632;23.378;2022-07-29T12:45:45;3.85;;;3.55;;
7334;SDS011;3708;42.632;23.378;2022-07-29T12:48:13;4.20;;;3.80;;
7334;SDS011;3708;42.632;23.378;2022-07-29T12:50:54;4.60;;;4.00;;
7334;SDS011;3708;42.632;23.378;2022-07-29T12:53:23;5.50;;;4.20;;
7334;SDS011;3708;42.632;23.378;2022-07-29T12:55:52;6.72;;;3.90;;
7334;SDS011;3708;42.632;23.378;2022-07-29T12:58:27;5.93;;;4.15;;
7334;SDS011;3708;42.632;23.378;2022-07-29T13:00:59;4.68;;;4.18;;
7334;SDS011;3708;42.632;23.378;2022-07-29T13:03:28;4.35;;;3.70;;
7334;SDS011;3708;42.632;23.378;2022-07-29T13:05:55;4.30;;;3.85;;
7334;SDS011;3708;42.632;23.378;2022-07-29T13:08:22;4.28;;;3.88;;
7334;SDS011;3708;42.632;23.378;2022-07-29T13:10:49;4.40;;;4.00;;
7334;SDS011;3708;42.632;23.378;2022-07-29T13:13:17;6.55;;;4.32;;
7334;SDS011;3708;42.632;23.378;2022-07-29T13:15:45;4.80;;;3.80;;
7334;SDS011;3708;42.632;23.378;2022-07-29T13:18:28;5.72;;;4.28;;
7334;SDS011;3708;42.632;23.378;2022-07-29T13:20:57;4.35;;;3.95;;
7334;SDS011;3708;42.632;23.378;2022-07-29T13:23:36;5.43;;;4.10;;
7334;SDS011;3708;42.632;23.378;2022-07-29T13:26:05;5.45;;;4.32;;
7334;SDS011;3708;42.632;23.378;2022-07-29T13:28:34;4.53;;;3.83;;
7334;SDS011;3708;42.632;23.378;2022-07-29T13:31:01;4.13;;;3.72;;
7334;SDS011;3708;42.632;23.378;2022-07-29T13:33:28;4.53;;;3.88;;
7334;SDS011;3708;42.632;23.378;2022-07-29T13:35:55;9.27;;;3.95;;
7334;SDS011;3708;42.632;23.378;2022-07-29T13:38:22;7.50;;;4.07;;
7334;SDS011;3708;42.632;23.378;2022-07-29T13:40:49;4.43;;;3.72;;
7334;SDS011;3708;42.632;23.378;2022-07-29T13:43:16;8.18;;;4.15;;
7334;SDS011;3708;42.632;23.378;2022-07-29T13:45:44;6.10;;;4.22;;
7334;SDS011;3708;42.632;23.378;2022-07-29T13:48:11;4.30;;;3.88;;
7334;SDS011;3708;42.632;23.378;2022-07-29T13:50:38;5.43;;;3.80;;
7334;SDS011;3708;42.632;23.378;2022-07-29T13:53:05;5.65;;;4.00;;
7334;SDS011;3708;42.632;23.378;2022-07-29T13:55:32;5.97;;;3.92;;
7334;SDS011;3708;42.632;23.378;2022-07-29T13:57:59;4.53;;;4.03;;
7334;SDS011;3708;42.632;23.378;2022-07-29T14:00:26;4.00;;;3.55;;
7334;SDS011;3708;42.632;23.378;2022-07-29T14:02:56;4.25;;;3.88;;
7334;SDS011;3708;42.632;23.378;2022-07-29T14:05:23;5.43;;;3.83;;
7334;SDS011;3708;42.632;23.378;2022-07-29T14:07:50;5.18;;;3.90;;
7334;SDS011;3708;42.632;23.378;2022-07-29T14:10:17;5.20;;;3.65;;
7334;SDS011;3708;42.632;23.378;2022-07-29T14:12:43;5.47;;;4.05;;
7334;SDS011;3708;42.632;23.378;2022-07-29T14:15:10;6.03;;;3.97;;
7334;SDS011;3708;42.632;23.378;2022-07-29T14:17:38;5.07;;;3.95;;
7334;SDS011;3708;42.632;23.378;2022-07-29T14:20:13;4.47;;;4.07;;
7334;SDS011;3708;42.632;23.378;2022-07-29T14:22:41;6.15;;;3.78;;
7334;SDS011;3708;42.632;23.378;2022-07-29T14:25:11;6.57;;;3.65;;
7334;SDS011;3708;42.632;23.378;2022-07-29T14:27:40;5.03;;;3.67;;
7334;SDS011;3708;42.632;23.378;2022-07-29T14:30:10;4.72;;;4.28;;
7334;SDS011;3708;42.632;23.378;2022-07-29T14:32:40;4.55;;;4.13;;
7334;SDS011;3708;42.632;23.378;2022-07-29T14:35:10;6.68;;;4.07;;
7334;SDS011;3708;42.632;23.378;2022-07-29T14:37:41;5.05;;;4.10;;
7334;SDS011;3708;42.632;23.378;2022-07-29T14:40:11;4.70;;;4.22;;
7334;SDS011;3708;42.632;23.378;2022-07-29T14:42:48;7.25;;;4.25;;
7334;SDS011;3708;42.632;23.378;2022-07-29T14:45:16;4.28;;;3.90;;
7334;SDS011;3708;42.632;23.378;2022-07-29T14:48:04;5.20;;;4.22;;
7334;SDS011;3708;42.632;23.378;2022-07-29T14:50:59;7.13;;;3.95;;
7334;SDS011;3708;42.632;23.378;2022-07-29T14:53:32;6.18;;;4.35;;
7334;SDS011;3708;42.632;23.378;2022-07-29T14:56:01;4.93;;;4.20;;
7334;SDS011;3708;42.632;23.378;2022-07-29T14:58:52;5.15;;;4.65;;
7334;SDS011;3708;42.632;23.378;2022-07-29T15:01:47;6.22;;;4.50;;
7334;SDS011;3708;42.632;23.378;2022-07-29T15:04:21;4.93;;;4.45;;
7334;SDS011;3708;42.632;23.378;2022-07-29T15:07:05;4.65;;;4.15;;
7334;SDS011;3708;42.632;23.378;2022-07-29T15:10:15;5.35;;;4.47;;
7334;SDS011;3708;42.632;23.378;2022-07-29T15:12:44;4.55;;;3.90;;
7334;SDS011;3708;42.632;23.378;2022-07-29T15:18:20;4.72;;;4.20;;
7334;SDS011;3708;42.632;23.378;2022-07-29T15:20:52;7.75;;;4.07;;
7334;SDS011;3708;42.632;23.378;2022-07-29T15:23:37;5.38;;;4.75;;
7334;SDS011;3708;42.632;23.378;2022-07-29T15:26:16;4.55;;;4.15;;
7334;SDS011;3708;42.632;23.378;2022-07-29T15:28:45;6.97;;;4.25;;
7334;SDS011;3708;42.632;23.378;2022-07-29T15:31:13;7.15;;;3.85;;
7334;SDS011;3708;42.632;23.378;2022-07-29T15:33:42;5.75;;;3.53;;
7334;SDS011;3708;42.632;23.378;2022-07-29T15:36:12;5.05;;;3.40;;
7334;SDS011;3708;42.632;23.378;2022-07-29T15:38:45;4.53;;;3.72;;
7334;SDS011;3708;42.632;23.378;2022-07-29T15:41:20;3.65;;;3.35;;